createdAt,value
2022-08-29T00:04:54.154Z,18.90
2022-08-29T00:09:56.618Z,18.90
2022-08-29T00:14:58.640Z,18.80
2022-08-29T00:20:00.922Z,18.80
2022-08-29T00:25:04.928Z,18.80
2022-08-29T00:30:08.885Z,18.80
2022-08-29T00:35:21.686Z,18.80
2022-08-29T00:40:32.119Z,18.80
2022-08-29T00:45:36.930Z,18.80
2022-08-29T00:50:41.474Z,18.70
2022-08-29T00:55:44.901Z,18.70
2022-08-29T01:00:53.750Z,18.70
2022-08-29T01:05:55.873Z,18.70
2022-08-29T01:11:16.895Z,18.70
2022-08-29T01:16:19.661Z,18.70
2022-08-29T01:21:36.658Z,18.70
2022-08-29T01:26:38.724Z,18.70
2022-08-29T01:31:56.679Z,18.70
2022-08-29T01:37:02.433Z,18.80
2022-08-29T01:42:10.080Z,18.80
2022-08-29T01:47:13.259Z,18.80
2022-08-29T01:52:17.844Z,18.80
2022-08-29T01:57:19.893Z,18.80
2022-08-29T02:02:27.640Z,18.80
2022-08-29T02:07:29.762Z,18.80
2022-08-29T02:12:31.713Z,18.80
2022-08-29T02:17:33.676Z,18.70
2022-08-29T02:22:36.878Z,18.70
2022-08-29T02:27:38.908Z,18.70
2022-08-29T02:32:41.037Z,18.60
2022-08-29T02:37:43.025Z,18.50
2022-08-29T02:42:44.963Z,18.50
2022-08-29T02:47:46.919Z,18.40
2022-08-29T02:52:49.013Z,18.30
2022-08-29T02:57:52.492Z,18.20
2022-08-29T03:02:55.946Z,18.20
2022-08-29T03:07:58.152Z,18.30
2022-08-29T03:13:00.199Z,18.30
2022-08-29T03:18:02.349Z,18.40
2022-08-29T03:23:04.928Z,18.40
2022-08-29T03:28:07.577Z,18.30
2022-08-29T03:33:11.843Z,18.30
2022-08-29T03:38:14.196Z,18.30
2022-08-29T03:43:16.369Z,18.30
2022-08-29T03:48:18.397Z,18.30
2022-08-29T03:53:21.057Z,18.30
2022-08-29T03:58:22.957Z,18.30
2022-08-29T04:03:29.986Z,18.30
2022-08-29T04:08:34.549Z,18.30
2022-08-29T04:13:36.840Z,18.20
2022-08-29T04:18:39.061Z,18.20
2022-08-29T04:23:41.193Z,18.20
2022-08-29T04:28:43.723Z,18.20
2022-08-29T04:33:47.516Z,18.20
2022-08-29T04:38:49.869Z,18.20
2022-08-29T04:43:51.864Z,18.30
2022-08-29T04:48:54.232Z,18.30
2022-08-29T04:53:56.302Z,18.30
2022-08-29T04:58:58.288Z,18.40
2022-08-29T05:04:00.877Z,18.40
2022-08-29T05:09:02.766Z,18.50
2022-08-29T05:14:04.842Z,18.50
2022-08-29T05:19:08.423Z,18.50
2022-08-29T05:24:13.438Z,18.50
2022-08-29T05:29:15.456Z,18.60
2022-08-29T05:34:34.315Z,18.50
2022-08-29T05:39:38.060Z,18.60
2022-08-29T05:44:40.493Z,18.60
2022-08-29T05:49:43.619Z,18.70
2022-08-29T05:54:46.252Z,18.80
2022-08-29T05:59:49.725Z,18.90
2022-08-29T06:04:52.947Z,19.10
2022-08-29T06:09:54.831Z,19.20
2022-08-29T06:15:06.559Z,19.40
2022-08-29T06:20:09.852Z,19.60
2022-08-29T06:25:35.571Z,20.20
2022-08-29T06:30:34.256Z,21.00
2022-08-29T06:35:36.772Z,21.30
2022-08-29T06:40:38.782Z,21.30
2022-08-29T06:45:44.157Z,21.20
2022-08-29T06:50:46.150Z,21.10
2022-08-29T06:55:48.306Z,21.40
2022-08-29T07:00:50.419Z,21.70
2022-08-29T07:05:53.989Z,22.00
2022-08-29T07:10:55.929Z,22.20
2022-08-29T07:15:58.227Z,22.20
2022-08-29T07:21:00.217Z,22.20
2022-08-29T07:26:10.027Z,22.20
2022-08-29T07:31:12.012Z,22.10
2022-08-29T07:36:13.997Z,22.00
2022-08-29T07:41:16.026Z,21.90
2022-08-29T07:46:20.003Z,22.10
2022-08-29T07:51:23.337Z,22.30
2022-08-29T07:56:28.086Z,23.00
2022-08-29T08:01:30.124Z,24.00
2022-08-29T08:06:34.467Z,24.40
2022-08-29T08:11:39.568Z,24.90
2022-08-29T08:16:44.255Z,25.20
2022-08-29T08:21:49.647Z,25.60
2022-08-29T08:26:52.303Z,26.10
2022-08-29T08:31:55.863Z,26.40
2022-08-29T08:36:57.885Z,26.60
2022-08-29T08:42:14.925Z,26.80
2022-08-29T08:47:23.246Z,27.20
2022-08-29T08:52:50.823Z,27.50
2022-08-29T08:58:01.881Z,27.70
2022-08-29T09:03:13.003Z,27.60
2022-08-29T09:08:26.340Z,28.00
2022-08-29T09:13:52.236Z,28.20
2022-08-29T09:18:56.922Z,28.50
2022-08-29T09:24:02.117Z,28.60
2022-08-29T09:29:04.557Z,28.60
2022-08-29T09:34:12.929Z,28.90
2022-08-29T09:39:25.466Z,29.20
2022-08-29T09:44:34.078Z,29.30
2022-08-29T09:49:38.547Z,29.40
2022-08-29T09:54:41.441Z,29.60
2022-08-29T09:59:49.649Z,29.80
2022-08-29T10:04:53.373Z,29.80
2022-08-29T10:10:13.852Z,29.20
2022-08-29T10:15:47.049Z,28.80
2022-08-29T10:21:07.860Z,29.20
2022-08-29T10:26:44.130Z,28.70
2022-08-29T10:31:48.223Z,28.60
2022-08-29T10:36:56.769Z,28.50
2022-08-29T10:42:09.802Z,28.90
2022-08-29T10:47:33.080Z,28.80
2022-08-29T10:53:04.315Z,28.40
2022-08-29T10:58:12.472Z,28.40
2022-08-29T11:03:28.698Z,28.70
2022-08-29T11:08:35.604Z,29.00
2022-08-29T11:13:43.774Z,29.10
2022-08-29T11:18:53.126Z,29.20
2022-08-29T11:23:56.334Z,29.20
2022-08-29T11:29:13.253Z,29.10
2022-08-29T11:34:53.134Z,29.20
2022-08-29T11:40:07.133Z,29.50
2022-08-29T11:45:12.390Z,29.50
2022-08-29T11:50:17.373Z,29.40
2022-08-29T11:55:46.288Z,29.30
2022-08-29T12:00:53.845Z,29.30
2022-08-29T12:06:21.945Z,29.50
2022-08-29T12:11:58.945Z,29.50
2022-08-29T12:17:03.815Z,29.80
2022-08-29T12:22:05.735Z,29.60
2022-08-29T12:27:55.810Z,29.60
2022-08-29T12:33:16.072Z,29.60
2022-08-29T12:38:51.369Z,29.40
2022-08-29T12:43:55.880Z,29.40
2022-08-29T12:49:16.088Z,29.50
2022-08-29T12:54:31.243Z,29.60
2022-08-29T12:59:34.991Z,29.80
2022-08-29T13:04:43.860Z,29.70
2022-08-29T13:10:08.081Z,29.30
2022-08-29T13:15:22.478Z,29.20
2022-08-29T13:20:46.912Z,29.10
2022-08-29T13:25:51.733Z,29.00
2022-08-29T13:31:09.444Z,29.10
2022-08-29T13:36:50.499Z,29.10
2022-08-29T13:42:01.763Z,29.00
2022-08-29T13:47:13.102Z,28.90
2022-08-29T13:52:16.252Z,29.00
2022-08-29T13:57:21.099Z,28.90
2022-08-29T14:02:31.671Z,28.90
2022-08-29T14:07:36.479Z,29.00
2022-08-29T14:12:39.180Z,28.90
2022-08-29T14:17:41.654Z,28.70
2022-08-29T14:22:43.941Z,28.80
2022-08-29T14:27:47.533Z,28.60
2022-08-29T14:32:49.798Z,28.50
2022-08-29T14:37:53.129Z,28.30
2022-08-29T14:42:55.041Z,28.20
2022-08-29T14:47:57.179Z,28.00
2022-08-29T14:52:59.580Z,28.10
2022-08-29T14:58:01.717Z,28.10
2022-08-29T15:03:03.754Z,28.10
2022-08-29T15:08:06.716Z,28.10
2022-08-29T15:13:09.037Z,28.00
2022-08-29T15:18:23.506Z,27.90
2022-08-29T15:23:34.247Z,27.60
2022-08-29T15:28:36.232Z,27.50
2022-08-29T15:33:39.746Z,27.50
2022-08-29T15:38:41.620Z,27.20
2022-08-29T15:43:43.509Z,27.00
2022-08-29T15:48:45.659Z,26.80
2022-08-29T15:53:47.823Z,26.60
2022-08-29T15:58:49.768Z,26.50
2022-08-29T16:03:51.696Z,26.30
2022-08-29T16:08:55.301Z,26.20
2022-08-29T16:14:28.582Z,26.10
2022-08-29T16:19:20.764Z,26.00
2022-08-29T16:24:24.094Z,25.90
2022-08-29T16:29:27.016Z,25.90
2022-08-29T16:34:29.286Z,25.70
2022-08-29T16:39:31.189Z,25.60
2022-08-29T16:44:34.068Z,25.50
2022-08-29T16:49:36.008Z,25.40
2022-08-29T16:54:38.596Z,25.30
2022-08-29T16:59:40.493Z,25.10
2022-08-29T17:04:42.549Z,25.00
2022-08-29T17:09:44.393Z,24.80
2022-08-29T17:14:46.253Z,24.60
2022-08-29T17:19:50.917Z,24.50
2022-08-29T17:24:52.856Z,24.30
2022-08-29T17:29:54.767Z,24.20
2022-08-29T17:34:56.817Z,24.00
2022-08-29T17:39:58.884Z,23.90
2022-08-29T17:45:00.936Z,23.70
2022-08-29T17:50:03.488Z,23.60
2022-08-29T17:55:07.729Z,23.30
2022-08-29T18:00:10.277Z,23.10
2022-08-29T18:05:15.674Z,22.90
2022-08-29T18:10:19.153Z,22.70
2022-08-29T18:15:21.034Z,22.50
2022-08-29T18:20:25.546Z,22.40
2022-08-29T18:25:27.482Z,22.30
2022-08-29T18:30:30.495Z,22.20
2022-08-29T18:35:32.707Z,22.10
2022-08-29T18:40:39.307Z,21.90
2022-08-29T18:45:43.637Z,21.80
2022-08-29T18:50:45.801Z,21.60
2022-08-29T18:55:51.081Z,21.50
2022-08-29T19:00:54.571Z,21.50
2022-08-29T19:05:56.609Z,21.40
2022-08-29T19:11:00.122Z,21.40
2022-08-29T19:16:03.921Z,21.30
2022-08-29T19:21:06.434Z,21.20
2022-08-29T19:26:11.701Z,21.10
2022-08-29T19:31:15.725Z,21.00
2022-08-29T19:36:21.038Z,20.90
2022-08-29T19:41:22.969Z,20.80
2022-08-29T19:46:27.165Z,20.70
2022-08-29T19:51:32.704Z,20.60
2022-08-29T19:56:34.826Z,20.50
2022-08-29T20:01:36.826Z,20.40
2022-08-29T20:06:40.177Z,20.30
2022-08-29T20:11:44.058Z,20.20
2022-08-29T20:16:46.346Z,20.10
2022-08-29T20:21:49.921Z,20.10
2022-08-29T20:26:52.310Z,19.90
2022-08-29T20:31:57.458Z,19.90
2022-08-29T20:37:10.131Z,19.70
2022-08-29T20:42:13.793Z,19.60
2022-08-29T20:47:19.562Z,19.50
2022-08-29T20:52:22.554Z,19.50
2022-08-29T20:57:26.136Z,19.50
2022-08-29T21:02:46.805Z,19.50
2022-08-29T21:07:49.631Z,19.50
2022-08-29T21:12:51.536Z,19.40
2022-08-29T21:17:54.080Z,19.40
2022-08-29T21:22:58.565Z,19.30
2022-08-29T21:28:01.920Z,19.30
2022-08-29T21:33:08.464Z,19.30
2022-08-29T21:38:11.204Z,19.30
2022-08-29T21:43:13.416Z,19.30
2022-08-29T21:48:16.001Z,19.30
2022-08-29T21:53:18.469Z,19.20
2022-08-29T21:58:20.758Z,19.20
2022-08-29T22:03:23.737Z,19.20
2022-08-29T22:08:28.249Z,19.10
2022-08-29T22:13:30.307Z,19.00
2022-08-29T22:18:32.369Z,19.00
2022-08-29T22:23:34.501Z,18.90
2022-08-29T22:28:36.899Z,18.90
2022-08-29T22:33:39.444Z,18.90
2022-08-29T22:38:43.305Z,18.80
2022-08-29T22:43:45.496Z,18.80
2022-08-29T22:48:48.411Z,18.70
2022-08-29T22:54:09.512Z,18.70
2022-08-29T22:59:12.752Z,18.70
2022-08-29T23:04:15.246Z,18.60
2022-08-29T23:09:17.535Z,18.60
2022-08-29T23:14:21.009Z,18.60
2022-08-29T23:19:22.945Z,18.60
2022-08-29T23:24:26.308Z,18.50
2022-08-29T23:29:30.928Z,18.50
2022-08-29T23:34:32.921Z,18.40
2022-08-29T23:39:35.001Z,18.40
2022-08-29T23:44:36.943Z,18.30
2022-08-29T23:49:39.902Z,18.30
2022-08-29T23:54:41.942Z,18.20
